createdAt,value
2023-03-06T00:01:19.348Z,99370.45
2023-03-06T00:03:49.875Z,99370.73
2023-03-06T00:06:20.648Z,99370.88
2023-03-06T00:08:51.032Z,99374.52
2023-03-06T00:11:22.044Z,99375.86
2023-03-06T00:13:53.326Z,99370.64
2023-03-06T00:16:25.036Z,99369.26
2023-03-06T00:18:55.575Z,99370.53
2023-03-06T00:21:26.125Z,99368.63
2023-03-06T00:23:56.537Z,99364.69
2023-03-06T00:26:27.081Z,99368.07
2023-03-06T00:28:57.508Z,99363.24
2023-03-06T00:31:28.104Z,99364.43
2023-03-06T00:33:58.526Z,99361.27
2023-03-06T00:36:29.040Z,99357.60
2023-03-06T00:38:59.471Z,99352.73
2023-03-06T00:41:30.000Z,99354.98
2023-03-06T00:44:01.551Z,99350.93
2023-03-06T00:46:32.111Z,99354.94
2023-03-06T00:49:02.663Z,99349.84
2023-03-06T00:51:33.891Z,99350.30
2023-03-06T00:54:04.463Z,99342.64
2023-03-06T00:56:34.931Z,99339.16
2023-03-06T00:59:05.501Z,99334.75
2023-03-06T01:01:36.133Z,99331.14
2023-03-06T01:04:06.810Z,99332.46
2023-03-06T01:06:37.475Z,99326.28
2023-03-06T01:09:08.052Z,99323.39
2023-03-06T01:11:38.686Z,99322.73
2023-03-06T01:14:09.398Z,99323.50
2023-03-06T01:16:40.560Z,99319.23
2023-03-06T01:19:11.070Z,99315.98
2023-03-06T01:21:42.738Z,99310.84
2023-03-06T01:24:13.234Z,99309.70
2023-03-06T01:26:43.704Z,99305.98
2023-03-06T01:29:14.179Z,99305.89
2023-03-06T01:31:44.675Z,99298.67
2023-03-06T01:34:15.101Z,99294.81
2023-03-06T01:36:45.742Z,99288.57
2023-03-06T01:39:16.304Z,99289.44
2023-03-06T01:41:47.001Z,99288.80
2023-03-06T01:44:17.436Z,99287.82
2023-03-06T01:46:48.356Z,99286.11
2023-03-06T01:49:22.207Z,99286.00
2023-03-06T01:51:56.862Z,99284.06
2023-03-06T01:54:30.545Z,99287.04
2023-03-06T01:57:05.196Z,99287.88
2023-03-06T01:59:38.670Z,99282.48
2023-03-06T02:02:12.183Z,99276.41
2023-03-06T02:04:44.184Z,99278.98
2023-03-06T02:07:15.393Z,99277.58
2023-03-06T02:09:45.832Z,99276.20
2023-03-06T02:12:20.131Z,99271.38
2023-03-06T02:14:51.202Z,99265.85
2023-03-06T02:17:23.353Z,99264.47
2023-03-06T02:19:59.992Z,99265.94
2023-03-06T02:22:37.230Z,99264.63
2023-03-06T02:25:16.369Z,99261.32
2023-03-06T02:27:48.413Z,99256.23
2023-03-06T02:30:20.171Z,99249.11
2023-03-06T02:32:50.648Z,99243.16
2023-03-06T02:35:25.129Z,99243.83
2023-03-06T02:37:57.133Z,99239.11
2023-03-06T02:40:27.963Z,99232.82
2023-03-06T02:42:59.688Z,99233.90
2023-03-06T02:45:35.747Z,99227.23
2023-03-06T02:48:07.105Z,99223.24
2023-03-06T02:50:37.551Z,99219.58
2023-03-06T02:53:08.969Z,99216.98
2023-03-06T02:55:40.064Z,99215.08
2023-03-06T02:58:11.032Z,99210.27
2023-03-06T03:00:42.507Z,99207.52
2023-03-06T03:03:13.338Z,99210.09
2023-03-06T03:05:43.822Z,99204.32
2023-03-06T03:08:18.492Z,99198.77
2023-03-06T03:10:49.638Z,99200.23
2023-03-06T03:13:20.743Z,99199.16
2023-03-06T03:16:01.708Z,99198.19
2023-03-06T03:18:32.888Z,99194.81
2023-03-06T03:21:03.984Z,99191.64
2023-03-06T03:23:34.445Z,99184.05
2023-03-06T03:26:11.580Z,99182.98
2023-03-06T03:28:44.074Z,99181.36
2023-03-06T03:31:15.820Z,99177.45
2023-03-06T03:33:46.316Z,99174.66
2023-03-06T03:36:17.008Z,99171.60
2023-03-06T03:38:48.007Z,99170.02
2023-03-06T03:41:18.597Z,99163.39
2023-03-06T03:43:49.644Z,99162.14
2023-03-06T03:46:21.536Z,99158.90
2023-03-06T03:48:52.657Z,99156.39
2023-03-06T03:51:23.534Z,99153.83
2023-03-06T03:53:58.139Z,99150.41
2023-03-06T03:56:29.826Z,99148.41
2023-03-06T03:59:04.693Z,99147.52
2023-03-06T04:01:40.279Z,99144.11
2023-03-06T04:04:11.535Z,99143.69
2023-03-06T04:06:42.322Z,99143.55
2023-03-06T04:09:13.051Z,99140.66
2023-03-06T04:11:43.497Z,99138.65
2023-03-06T04:14:14.159Z,99136.96
2023-03-06T04:16:44.637Z,99129.36
2023-03-06T04:19:15.189Z,99121.95
2023-03-06T04:21:45.994Z,99124.62
2023-03-06T04:24:17.666Z,99123.39
2023-03-06T04:26:48.191Z,99120.15
2023-03-06T04:29:18.680Z,99117.16
2023-03-06T04:31:49.559Z,99113.91
2023-03-06T04:34:20.211Z,99108.10
2023-03-06T04:36:50.771Z,99109.51
2023-03-06T04:39:21.406Z,99109.75
2023-03-06T04:41:52.378Z,99100.66
2023-03-06T04:44:23.046Z,99102.53
2023-03-06T04:46:53.805Z,99100.44
2023-03-06T04:49:24.273Z,99100.60
2023-03-06T04:51:54.968Z,99100.23
2023-03-06T04:54:25.616Z,99099.25
2023-03-06T04:56:56.031Z,99097.89
2023-03-06T04:59:26.521Z,99099.64
2023-03-06T05:01:57.122Z,99101.66
2023-03-06T05:04:27.721Z,99101.70
2023-03-06T05:06:58.248Z,99098.97
2023-03-06T05:09:28.762Z,99097.21
2023-03-06T05:16:12.809Z,99091.55
2023-03-06T05:18:43.494Z,99094.10
2023-03-06T05:21:14.368Z,99089.52
2023-03-06T05:23:44.817Z,99093.34
2023-03-06T05:26:16.878Z,99093.05
2023-03-06T05:28:47.265Z,99091.94
2023-03-06T05:31:17.785Z,99091.48
2023-03-06T05:33:48.374Z,99091.06
2023-03-06T05:36:18.841Z,99092.23
2023-03-06T05:38:49.334Z,99096.09
2023-03-06T05:41:19.892Z,99092.52
2023-03-06T05:43:50.422Z,99091.95
2023-03-06T05:46:21.005Z,99093.75
2023-03-06T05:48:52.544Z,99092.64
2023-03-06T05:51:23.012Z,99091.88
2023-03-06T05:53:53.503Z,99093.71
2023-03-06T05:56:24.061Z,99089.08
2023-03-06T05:58:54.502Z,99087.44
2023-03-06T06:01:26.029Z,99087.69
2023-03-06T06:03:56.704Z,99088.74
2023-03-06T06:06:27.234Z,99091.65
2023-03-06T06:13:10.655Z,99084.48
2023-03-06T06:15:41.744Z,99086.77
2023-03-06T06:18:12.375Z,99090.73
2023-03-06T06:20:42.839Z,99091.14
2023-03-06T06:23:14.074Z,99090.03
2023-03-06T06:25:44.601Z,99091.95
2023-03-06T06:28:15.033Z,99098.24
2023-03-06T06:30:45.660Z,99099.82
2023-03-06T06:33:16.167Z,99104.55
2023-03-06T06:35:46.693Z,99106.79
2023-03-06T06:38:17.248Z,99107.52
2023-03-06T06:41:18.035Z,99107.08
2023-03-06T06:43:38.143Z,99106.95
2023-03-06T06:46:38.827Z,99111.30
2023-03-06T06:49:00.153Z,99110.66
2023-03-06T06:51:33.681Z,99110.88
2023-03-06T06:54:04.457Z,99102.70
2023-03-06T06:56:35.877Z,99103.69
2023-03-06T06:59:16.138Z,99107.05
2023-03-06T07:01:47.865Z,99103.70
2023-03-06T07:04:19.261Z,99098.68
2023-03-06T07:06:49.690Z,99097.45
2023-03-06T07:09:20.616Z,99101.31
2023-03-06T07:11:51.437Z,99103.66
2023-03-06T07:14:22.099Z,99099.35
2023-03-06T07:16:52.600Z,99101.92
2023-03-06T07:19:23.246Z,99102.80
2023-03-06T07:21:53.783Z,99106.76
2023-03-06T07:24:24.379Z,99105.55
2023-03-06T07:26:54.849Z,99109.12
2023-03-06T07:29:25.341Z,99105.36
2023-03-06T07:31:56.047Z,99108.13
2023-03-06T07:34:26.686Z,99108.89
2023-03-06T07:36:57.236Z,99112.81
2023-03-06T07:39:28.244Z,99118.05
2023-03-06T07:41:59.226Z,99114.73
2023-03-06T07:44:30.202Z,99117.05
2023-03-06T07:47:00.926Z,99115.95
2023-03-06T07:49:31.618Z,99116.04
2023-03-06T07:52:03.147Z,99117.95
2023-03-06T07:54:35.294Z,99116.68
2023-03-06T07:57:06.077Z,99118.50
2023-03-06T07:59:36.571Z,99120.73
2023-03-06T08:02:07.280Z,99122.33
2023-03-06T08:04:37.707Z,99119.33
2023-03-06T08:07:08.362Z,99122.49
2023-03-06T08:09:38.958Z,99120.24
2023-03-06T08:12:10.665Z,99118.75
2023-03-06T08:14:41.256Z,99119.41
2023-03-06T08:17:11.786Z,99117.88
2023-03-06T08:19:42.213Z,99119.94
2023-03-06T08:22:14.082Z,99123.45
2023-03-06T08:24:44.603Z,99120.86
2023-03-06T08:27:15.097Z,99119.92
2023-03-06T08:29:45.539Z,99118.98
2023-03-06T08:32:16.091Z,99118.89
2023-03-06T08:34:46.825Z,99118.98
2023-03-06T08:37:17.315Z,99117.30
2023-03-06T08:39:47.847Z,99117.98
2023-03-06T08:42:18.415Z,99113.39
2023-03-06T08:44:48.964Z,99116.36
2023-03-06T08:47:19.517Z,99115.58
2023-03-06T08:49:50.062Z,99116.79
2023-03-06T08:52:20.983Z,99117.15
2023-03-06T08:54:51.407Z,99117.41
2023-03-06T08:57:22.103Z,99121.99
2023-03-06T08:59:52.591Z,99123.66
2023-03-06T09:02:23.193Z,99121.95
2023-03-06T09:04:53.991Z,99117.28
2023-03-06T09:07:24.467Z,99121.59
2023-03-06T09:09:58.567Z,99119.11
2023-03-06T09:12:30.823Z,99122.17
2023-03-06T09:15:08.061Z,99121.36
2023-03-06T09:17:38.555Z,99122.10
2023-03-06T09:20:12.031Z,99120.50
2023-03-06T09:22:43.070Z,99117.46
2023-03-06T09:25:17.606Z,99122.27
2023-03-06T09:27:55.484Z,99121.45
2023-03-06T09:30:32.711Z,99118.93
2023-03-06T09:33:03.319Z,99112.95
2023-03-06T09:35:33.841Z,99110.89
2023-03-06T09:38:04.304Z,99115.70
2023-03-06T09:40:49.353Z,99111.36
2023-03-06T09:43:27.143Z,99113.56
2023-03-06T09:45:58.182Z,99113.77
2023-03-06T09:48:40.647Z,99111.32
2023-03-06T09:51:16.248Z,99109.08
2023-03-06T09:54:02.463Z,99107.15
2023-03-06T09:56:36.872Z,99108.26
2023-03-06T09:59:14.296Z,99113.20
2023-03-06T10:01:50.921Z,99113.64
2023-03-06T10:04:35.647Z,99110.01
2023-03-06T10:07:14.205Z,99112.08
2023-03-06T10:09:51.899Z,99114.70
2023-03-06T10:12:28.816Z,99106.92
2023-03-06T10:15:04.030Z,99101.54
2023-03-06T10:17:38.561Z,99102.23
2023-03-06T10:20:25.176Z,99100.51
2023-03-06T10:23:08.085Z,99097.38
2023-03-06T10:25:48.858Z,99095.55
2023-03-06T10:28:25.520Z,99095.10
2023-03-06T10:31:04.188Z,99091.25
2023-03-06T10:33:48.177Z,99085.01
2023-03-06T10:36:20.878Z,99083.01
2023-03-06T10:38:51.718Z,99076.14
2023-03-06T10:41:28.533Z,99075.09
2023-03-06T10:44:20.947Z,99067.13
2023-03-06T10:46:53.594Z,99065.52
2023-03-06T10:49:36.151Z,99064.42
2023-03-06T10:52:22.832Z,99065.86
2023-03-06T10:54:53.311Z,99058.30
2023-03-06T10:57:29.054Z,99058.48
2023-03-06T11:00:01.114Z,99058.96
2023-03-06T11:02:36.328Z,99050.66
2023-03-06T11:05:19.928Z,99046.54
2023-03-06T11:07:59.281Z,99046.67
2023-03-06T11:10:31.037Z,99042.85
2023-03-06T11:13:06.281Z,99041.03
2023-03-06T11:15:37.025Z,99039.52
2023-03-06T11:18:31.238Z,99039.25
2023-03-06T11:21:02.564Z,99036.09
2023-03-06T11:23:39.263Z,99033.58
2023-03-06T11:26:25.976Z,99032.58
2023-03-06T11:29:07.970Z,99034.27
2023-03-06T11:31:43.789Z,99029.95
2023-03-06T11:34:24.371Z,99028.58
2023-03-06T11:36:59.636Z,99030.71
2023-03-06T11:39:37.054Z,99021.69
2023-03-06T11:42:16.917Z,99022.86
2023-03-06T11:45:02.886Z,99024.61
2023-03-06T11:47:37.871Z,99030.16
2023-03-06T11:50:19.104Z,99018.69
2023-03-06T11:52:52.535Z,99018.37
2023-03-06T11:55:34.852Z,99016.09
2023-03-06T11:58:23.197Z,99006.52
2023-03-06T12:01:01.631Z,99004.72
2023-03-06T12:03:57.822Z,99002.32
2023-03-06T12:06:39.222Z,99000.72
2023-03-06T12:09:25.215Z,99005.20
2023-03-06T12:12:06.582Z,98997.52
2023-03-06T12:14:53.230Z,98995.27
2023-03-06T12:17:32.943Z,98989.52
2023-03-06T12:20:22.427Z,98987.67
2023-03-06T12:23:14.167Z,98988.60
2023-03-06T12:25:49.454Z,98988.14
2023-03-06T12:28:32.692Z,98983.83
2023-03-06T12:31:23.784Z,98977.39
2023-03-06T12:34:04.639Z,98980.73
2023-03-06T12:36:48.341Z,98982.45
2023-03-06T12:39:28.492Z,98977.45
2023-03-06T12:42:22.634Z,98982.00
2023-03-06T12:45:23.016Z,98977.93
2023-03-06T12:47:57.398Z,98974.55
2023-03-06T12:50:30.235Z,98968.67
2023-03-06T12:53:04.011Z,98975.80
2023-03-06T12:55:41.820Z,98977.06
2023-03-06T12:58:51.077Z,98972.66
2023-03-06T13:01:51.848Z,98971.21
2023-03-06T13:04:36.391Z,98959.85
2023-03-06T13:07:19.903Z,98957.73
2023-03-06T13:10:06.867Z,98958.38
2023-03-06T13:12:51.266Z,98956.74
2023-03-06T13:15:39.973Z,98953.79
2023-03-06T13:18:57.263Z,98950.06
2023-03-06T13:22:03.929Z,98947.23
2023-03-06T13:24:37.198Z,98941.48
2023-03-06T13:27:11.019Z,98943.72
2023-03-06T13:30:29.709Z,98947.15
2023-03-06T13:33:00.250Z,98951.27
2023-03-06T13:35:52.884Z,98952.29
2023-03-06T13:39:08.643Z,98965.36
2023-03-06T13:41:56.964Z,98962.27
2023-03-06T13:44:53.332Z,98970.17
2023-03-06T13:47:59.136Z,98971.79
2023-03-06T13:50:38.410Z,98973.87
2023-03-06T13:53:42.166Z,98972.64
2023-03-06T13:56:19.566Z,98974.54
2023-03-06T13:59:15.948Z,98976.25
2023-03-06T14:01:57.643Z,98970.82
2023-03-06T14:04:45.193Z,98966.20
2023-03-06T14:07:24.933Z,98960.45
2023-03-06T14:10:10.738Z,98945.85
2023-03-06T14:12:44.486Z,98943.88
2023-03-06T14:15:22.143Z,98939.33
2023-03-06T14:17:58.707Z,98938.73
2023-03-06T14:20:36.625Z,98935.41
2023-03-06T14:23:28.214Z,98936.04
2023-03-06T14:26:08.491Z,98932.42
2023-03-06T14:28:39.117Z,98933.80
2023-03-06T14:31:14.846Z,98931.33
2023-03-06T14:33:51.329Z,98929.23
2023-03-06T14:36:24.361Z,98925.41
2023-03-06T14:38:58.253Z,98923.17
2023-03-06T14:41:31.998Z,98924.52
2023-03-06T14:44:19.381Z,98922.80
2023-03-06T14:46:51.358Z,98921.71
2023-03-06T14:49:24.892Z,98919.64
2023-03-06T14:51:57.641Z,98920.54
2023-03-06T14:54:32.741Z,98917.55
2023-03-06T14:57:06.794Z,98912.98
2023-03-06T14:59:44.551Z,98913.77
2023-03-06T15:02:21.128Z,98910.59
2023-03-06T15:04:56.271Z,98908.59
2023-03-06T15:07:31.494Z,98912.15
2023-03-06T15:10:02.577Z,98911.65
2023-03-06T15:12:39.636Z,98909.79
2023-03-06T15:15:29.026Z,98910.95
2023-03-06T15:17:59.626Z,98911.70
2023-03-06T15:20:51.870Z,98911.95
2023-03-06T15:23:26.799Z,98910.88
2023-03-06T15:26:01.852Z,98912.95
2023-03-06T15:28:38.661Z,98914.30
2023-03-06T15:35:37.334Z,98915.54
2023-03-06T15:38:32.999Z,98917.33
2023-03-06T15:41:05.528Z,98916.50
2023-03-06T15:43:39.377Z,98917.71
2023-03-06T15:50:30.926Z,98915.31
2023-03-06T15:53:01.352Z,98911.38
2023-03-06T15:55:32.866Z,98911.93
2023-03-06T15:58:04.712Z,98909.60
2023-03-06T16:00:38.594Z,98908.64
2023-03-06T16:03:11.411Z,98905.80
2023-03-06T16:05:42.055Z,98905.84
2023-03-06T16:08:15.020Z,98906.90
2023-03-06T16:10:46.832Z,98905.55
2023-03-06T16:13:20.504Z,98908.80
2023-03-06T16:20:17.697Z,98908.28
2023-03-06T16:22:50.592Z,98911.84
2023-03-06T16:29:33.804Z,98914.20
2023-03-06T16:32:04.730Z,98916.96
2023-03-06T16:34:35.320Z,98917.85
2023-03-06T16:37:07.296Z,98917.92
2023-03-06T16:39:37.712Z,98920.52
2023-03-06T16:42:08.758Z,98920.23
2023-03-06T16:44:39.512Z,98919.83
2023-03-06T16:47:12.843Z,98914.52
2023-03-06T16:49:43.424Z,98917.49
2023-03-06T16:56:34.536Z,98920.80
2023-03-06T16:59:05.337Z,98924.83
2023-03-06T17:01:36.010Z,98930.35
2023-03-06T17:04:06.930Z,98930.99
2023-03-06T17:06:38.082Z,98934.02
2023-03-06T17:13:22.462Z,98937.06
2023-03-06T17:15:59.589Z,98939.23
2023-03-06T17:22:42.672Z,98940.53
2023-03-06T17:25:13.937Z,98941.11
2023-03-06T17:27:44.476Z,98937.53
2023-03-06T17:30:16.486Z,98940.09
2023-03-06T17:32:46.951Z,98938.73
2023-03-06T17:35:17.508Z,98940.67
2023-03-06T17:37:47.975Z,98934.92
2023-03-06T17:40:19.481Z,98937.47
2023-03-06T17:42:50.713Z,98940.75
2023-03-06T17:45:21.363Z,98941.02
2023-03-06T17:47:55.491Z,98943.88
2023-03-06T17:50:25.937Z,98949.80
2023-03-06T17:52:56.750Z,98946.70
2023-03-06T17:55:28.991Z,98945.05
2023-03-06T17:57:59.533Z,98947.10
2023-03-06T18:00:30.049Z,98943.58
2023-03-06T18:03:54.024Z,98942.98
2023-03-06T18:06:27.657Z,98948.27
2023-03-06T18:08:59.031Z,98952.90
2023-03-06T18:11:30.519Z,98954.97
2023-03-06T18:14:01.083Z,98954.19
2023-03-06T18:20:34.060Z,98955.17
2023-03-06T18:23:04.501Z,98954.05
2023-03-06T18:25:34.986Z,98953.15
2023-03-06T18:28:42.587Z,98951.08
2023-03-06T18:31:19.902Z,98957.94
2023-03-06T18:33:52.012Z,98960.22
2023-03-06T18:36:24.420Z,98965.06
2023-03-06T18:38:55.710Z,98964.05
2023-03-06T18:41:26.211Z,98965.23
2023-03-06T18:43:57.928Z,98966.09
2023-03-06T18:46:30.598Z,98970.16
2023-03-06T18:49:01.726Z,98971.34
2023-03-06T18:51:32.772Z,98973.54
2023-03-06T18:54:04.931Z,98976.40
2023-03-06T18:56:35.671Z,98975.05
2023-03-06T18:59:08.009Z,98973.02
2023-03-06T19:01:37.760Z,98973.55
2023-03-06T19:04:08.229Z,98974.05
2023-03-06T19:06:39.940Z,98973.02
2023-03-06T19:09:11.375Z,98971.61
2023-03-06T19:11:42.761Z,98975.62
2023-03-06T19:14:13.497Z,98975.77
2023-03-06T19:16:44.465Z,98972.05
2023-03-06T19:19:14.967Z,98969.52
2023-03-06T19:21:45.375Z,98969.69
2023-03-06T19:24:15.822Z,98965.31
2023-03-06T19:26:46.218Z,98966.63
2023-03-06T19:29:16.982Z,98965.55
2023-03-06T19:36:08.835Z,98974.51
2023-03-06T19:38:37.960Z,98976.05
2023-03-06T19:41:11.955Z,98977.02
2023-03-06T19:43:43.410Z,98975.49
2023-03-06T19:46:15.229Z,98979.34
2023-03-06T19:48:46.401Z,98984.35
2023-03-06T19:55:36.206Z,98986.02
2023-03-06T19:58:07.266Z,98985.28
2023-03-06T20:00:38.258Z,98988.67
2023-03-06T20:03:09.044Z,98991.86
2023-03-06T20:05:46.125Z,98997.59
2023-03-06T20:08:16.580Z,99002.66
2023-03-06T20:15:10.327Z,99007.06
2023-03-06T20:17:41.112Z,99010.27
2023-03-06T20:20:14.359Z,99011.11
2023-03-06T20:22:44.772Z,99014.15
2023-03-06T20:25:15.327Z,99014.48
2023-03-06T20:27:45.736Z,99008.39
2023-03-06T20:30:17.164Z,99005.70
2023-03-06T20:32:47.641Z,99003.32
2023-03-06T20:35:44.856Z,99003.11
2023-03-06T20:42:29.085Z,99004.72
2023-03-06T20:44:59.628Z,99003.71
2023-03-06T20:47:30.309Z,99002.20
2023-03-06T20:50:00.686Z,99001.34
2023-03-06T20:52:31.157Z,99004.19
2023-03-06T20:55:01.923Z,99007.55
2023-03-06T21:06:25.851Z,99006.64
2023-03-06T21:08:56.639Z,99003.73
2023-03-06T21:11:28.286Z,99006.58
2023-03-06T21:13:59.180Z,99007.39
2023-03-06T21:20:56.344Z,99002.02
2023-03-06T21:23:26.804Z,98998.45
2023-03-06T21:25:57.421Z,98998.64
2023-03-06T21:28:28.175Z,98996.28
2023-03-06T21:31:00.604Z,98997.46
2023-03-06T21:33:31.690Z,99000.16
2023-03-06T21:36:02.503Z,98995.80
2023-03-06T21:47:06.292Z,98991.72
2023-03-06T21:49:36.872Z,98988.33
2023-03-06T21:52:07.842Z,98992.09
2023-03-06T21:54:38.421Z,98990.20
2023-03-06T21:57:10.379Z,98991.64
2023-03-06T21:59:41.289Z,98990.67
2023-03-06T22:02:12.638Z,98991.35
2023-03-06T22:04:44.301Z,98988.10
2023-03-06T22:07:14.741Z,98989.45
2023-03-06T22:09:45.278Z,98984.17
2023-03-06T22:12:15.673Z,98984.11
2023-03-06T22:14:47.034Z,98983.56
2023-03-06T22:17:17.495Z,98983.27
2023-03-06T22:19:49.121Z,98985.89
2023-03-06T22:22:19.566Z,98988.48
2023-03-06T22:24:50.990Z,98988.63
2023-03-06T22:27:21.829Z,98988.65
2023-03-06T22:29:52.874Z,98986.34
2023-03-06T22:32:23.512Z,98987.64
2023-03-06T22:34:54.033Z,98984.85
2023-03-06T22:37:24.545Z,98985.16
2023-03-06T22:39:55.003Z,98984.33
2023-03-06T22:42:25.470Z,98983.84
2023-03-06T22:44:55.967Z,98985.20
2023-03-06T22:47:26.404Z,98985.54
2023-03-06T22:49:57.004Z,98980.26
2023-03-06T22:52:27.393Z,98978.73
2023-03-06T22:54:58.166Z,98973.67
2023-03-06T22:57:30.015Z,98972.45
2023-03-06T23:00:00.479Z,98979.70
2023-03-06T23:02:36.172Z,98981.69
2023-03-06T23:05:07.409Z,98978.09
2023-03-06T23:07:37.914Z,98976.82
2023-03-06T23:10:10.538Z,98975.08
2023-03-06T23:12:59.825Z,98974.84
2023-03-06T23:15:49.036Z,98977.63
2023-03-06T23:18:39.257Z,98978.41
2023-03-06T23:21:28.211Z,98980.08
2023-03-06T23:24:17.519Z,98978.49
2023-03-06T23:26:48.003Z,98979.81
2023-03-06T23:29:18.595Z,98979.41
2023-03-06T23:31:49.116Z,98981.52
2023-03-06T23:34:19.546Z,98981.25
2023-03-06T23:36:49.996Z,98982.16
2023-03-06T23:39:20.938Z,98982.48
2023-03-06T23:41:51.433Z,98981.20
2023-03-06T23:44:21.851Z,98981.20
2023-03-06T23:46:52.269Z,98982.00
2023-03-06T23:49:22.725Z,98980.23
2023-03-06T23:51:53.262Z,98981.50
2023-03-06T23:54:23.989Z,98979.73
2023-03-06T23:56:54.608Z,98980.39
2023-03-06T23:59:25.068Z,98979.44
